createdAt,value
2023-03-13T00:10:01.016Z,2.67
2023-03-13T00:20:09.811Z,2.67
2023-03-13T00:30:15.973Z,2.67
2023-03-13T00:40:23.431Z,2.68
2023-03-13T00:50:30.453Z,2.80
2023-03-13T01:00:37.419Z,2.98
2023-03-13T01:10:44.528Z,3.16
2023-03-13T01:20:51.735Z,3.24
2023-03-13T01:31:00.554Z,3.29
2023-03-13T01:41:05.523Z,3.35
2023-03-13T01:51:16.847Z,3.46
2023-03-13T02:01:24.788Z,3.66
2023-03-13T02:11:36.713Z,3.82
2023-03-13T02:21:50.688Z,3.85
2023-03-13T02:31:58.177Z,3.86
2023-03-13T02:42:06.838Z,3.92
2023-03-13T02:52:15.391Z,4.07
2023-03-13T03:02:22.941Z,4.20
2023-03-13T03:12:30.579Z,4.24
2023-03-13T03:22:38.818Z,4.23
2023-03-13T03:32:46.122Z,4.30
2023-03-13T03:42:53.473Z,4.44
2023-03-13T03:53:00.651Z,4.57
2023-03-13T04:03:08.269Z,4.60
2023-03-13T04:13:15.776Z,4.56
2023-03-13T04:23:22.851Z,4.58
2023-03-13T04:33:30.623Z,4.64
2023-03-13T04:43:37.723Z,4.74
2023-03-13T04:53:44.779Z,4.76
2023-03-13T05:03:52.102Z,4.70
2023-03-13T05:13:59.398Z,4.70
2023-03-13T05:24:07.227Z,4.80
2023-03-13T05:34:14.085Z,4.91
2023-03-13T05:44:21.362Z,5.02
2023-03-13T05:54:28.207Z,5.08
2023-03-13T06:04:35.821Z,5.10
2023-03-13T06:14:43.146Z,5.20
2023-03-13T06:24:50.488Z,5.41
2023-03-13T06:34:57.774Z,5.71
2023-03-13T06:45:05.233Z,5.98
2023-03-13T06:55:13.860Z,6.24
2023-03-13T07:05:21.207Z,6.48
2023-03-13T07:15:27.357Z,6.59
2023-03-13T07:35:41.244Z,6.79
2023-03-13T07:45:58.452Z,7.30
2023-03-13T07:56:05.695Z,8.01
2023-03-13T08:06:15.134Z,8.12
2023-03-13T08:16:22.033Z,8.96
2023-03-13T08:26:30.924Z,9.54
2023-03-13T08:36:37.625Z,10.26
2023-03-13T08:46:45.840Z,10.65
2023-03-13T08:56:53.380Z,10.91
2023-03-13T09:07:00.502Z,11.00
2023-03-13T09:17:06.857Z,11.15
2023-03-13T09:27:14.328Z,11.09
2023-03-13T09:37:21.503Z,11.17
2023-03-13T09:47:38.316Z,11.41
2023-03-13T09:57:51.590Z,11.44
2023-03-13T10:07:57.933Z,11.63
2023-03-13T10:18:02.658Z,12.12
2023-03-13T10:28:09.979Z,12.55
2023-03-13T10:38:19.372Z,12.74
2023-03-13T10:48:28.911Z,12.81
2023-03-13T10:58:38.638Z,12.68
2023-03-13T11:08:45.694Z,12.42
2023-03-13T11:18:59.150Z,12.69
2023-03-13T11:29:04.780Z,12.72
2023-03-13T11:39:17.401Z,12.63
2023-03-13T11:49:45.724Z,12.54
2023-03-13T11:59:50.874Z,12.39
2023-03-13T12:10:01.608Z,12.18
2023-03-13T12:20:15.345Z,11.81
2023-03-13T12:30:25.920Z,11.40
2023-03-13T12:40:36.337Z,10.94
2023-03-13T12:50:44.601Z,10.64
2023-03-13T13:00:53.536Z,10.29
2023-03-13T13:11:15.205Z,10.24
2023-03-13T13:21:29.667Z,10.41
2023-03-13T13:31:55.503Z,10.50
2023-03-13T13:42:04.007Z,10.57
2023-03-13T13:52:39.684Z,10.50
2023-03-13T14:02:47.723Z,10.37
2023-03-13T14:12:55.380Z,10.26
2023-03-13T14:23:02.062Z,10.19
2023-03-13T14:33:09.604Z,10.14
2023-03-13T14:43:36.713Z,10.12
2023-03-13T14:53:54.240Z,10.13
2023-03-13T15:04:01.573Z,10.13
2023-03-13T15:14:33.719Z,10.08
2023-03-13T15:24:41.092Z,10.00
2023-03-13T15:34:48.981Z,9.94
2023-03-13T15:44:55.347Z,9.91
2023-03-13T15:55:03.201Z,9.89
2023-03-13T16:05:10.275Z,9.88
2023-03-13T16:15:17.909Z,9.82
2023-03-13T16:25:26.117Z,9.91
2023-03-13T16:35:33.751Z,9.96
2023-03-13T16:45:42.084Z,9.90
2023-03-13T16:55:51.109Z,9.82
2023-03-13T17:05:58.366Z,9.72
2023-03-13T17:16:11.323Z,9.65
2023-03-13T17:26:17.132Z,9.67
2023-03-13T17:36:27.232Z,9.59
2023-03-13T17:46:39.583Z,9.46
2023-03-13T17:56:47.478Z,9.34
2023-03-13T18:06:54.564Z,9.32
2023-03-13T18:17:01.611Z,9.29
2023-03-13T18:27:07.219Z,9.18
2023-03-13T18:37:16.570Z,9.14
2023-03-13T18:47:27.542Z,9.14
2023-03-13T18:57:35.060Z,9.16
2023-03-13T19:07:42.751Z,9.09
2023-03-13T19:17:49.726Z,9.03
2023-03-13T19:38:03.628Z,8.92
2023-03-13T19:48:11.857Z,8.91
2023-03-13T19:58:19.564Z,9.00
2023-03-13T20:08:26.937Z,9.10
2023-03-13T20:18:32.847Z,9.09
2023-03-13T20:28:41.257Z,9.05
2023-03-13T20:38:48.910Z,8.98
2023-03-13T20:48:58.819Z,8.88
2023-03-13T20:59:05.137Z,8.79
2023-03-13T21:09:13.737Z,8.73
2023-03-13T21:19:21.484Z,8.57
2023-03-13T21:29:28.700Z,8.44
2023-03-13T21:39:36.174Z,8.40
2023-03-13T21:49:43.569Z,8.42
2023-03-13T21:59:50.945Z,8.38
2023-03-13T22:09:58.213Z,8.35
2023-03-13T22:20:06.567Z,8.34
2023-03-13T22:30:15.075Z,8.24
2023-03-13T22:40:22.483Z,8.07
2023-03-13T22:50:28.656Z,7.91
2023-03-13T23:00:36.361Z,7.79
2023-03-13T23:10:43.244Z,7.76
2023-03-13T23:20:50.925Z,7.75
2023-03-13T23:30:58.106Z,7.71
2023-03-13T23:41:06.994Z,7.57
2023-03-13T23:51:13.339Z,7.43
